Time;durP1;ratioP1;P1;durP2;ratioP2;P2;SDS_P1;SDS_P2;PMS_P1;PMS_P2;Temp;Humidity;BMP_temperature;BMP_pressure;BME280_temperature;BME280_humidity;BME280_pressure;Samples;Min_cycle;Max_cycle;Signal;HPM_P1;HPM_P2
2023/03/30 00:00:17;;;;;;;3.10;1.47;;;6.30;99.90;;;;;;4990955;28;20504;-48
2023/03/30 00:02:45;;;;;;;3.90;2.17;;;6.10;99.90;;;;;;4991294;28;20452;-48
2023/03/30 00:05:12;;;;;;;4.37;1.70;;;6.20;99.90;;;;;;4990665;28;20487;-48
2023/03/30 00:07:41;;;;;;;2.57;1.27;;;6.20;99.90;;;;;;4990788;28;20487;-49
2023/03/30 00:10:10;;;;;;;3.37;1.47;;;6.30;99.90;;;;;;4990975;28;20508;-48
2023/03/30 00:12:38;;;;;;;3.73;1.33;;;6.30;99.90;;;;;;4971720;28;20445;-47
2023/03/30 00:15:06;;;;;;;3.10;1.23;;;6.40;99.90;;;;;;4971905;28;20473;-50
2023/03/30 00:17:33;;;;;;;2.17;1.40;;;6.50;99.90;;;;;;4971540;28;20539;-49
2023/03/30 00:20:04;;;;;;;4.20;1.50;;;6.50;99.90;;;;;;4973808;28;20504;-48
2023/03/30 00:22:32;;;;;;;4.53;2.00;;;6.50;99.90;;;;;;4990619;28;20546;-49
2023/03/30 00:24:59;;;;;;;3.37;2.03;;;6.20;99.90;;;;;;4990743;28;20540;-47
2023/03/30 00:27:27;;;;;;;2.23;1.80;;;6.00;99.90;;;;;;4991956;28;20970;-48
2023/03/30 00:29:54;;;;;;;4.67;1.93;;;6.00;99.90;;;;;;4991429;28;20472;-49
2023/03/30 00:32:21;;;;;;;3.73;1.50;;;6.10;99.90;;;;;;4991173;28;20479;-48
2023/03/30 00:34:48;;;;;;;3.87;1.93;;;6.20;99.90;;;;;;4990500;28;21034;-49
2023/03/30 00:37:15;;;;;;;3.90;1.83;;;6.30;99.90;;;;;;4990884;28;20468;-48
2023/03/30 00:39:42;;;;;;;3.30;2.10;;;6.30;99.90;;;;;;4990997;28;20461;-48
2023/03/30 00:42:15;;;;;;;1.97;1.77;;;6.30;99.90;;;;;;4990503;28;21049;-47
2023/03/30 00:45:06;;;;;;;3.77;1.67;;;6.30;99.90;;;;;;4990679;28;20535;-48
2023/03/30 00:47:34;;;;;;;2.47;1.93;;;6.30;99.90;;;;;;4990846;28;20448;-48
2023/03/30 00:50:03;;;;;;;4.70;2.50;;;6.40;99.90;;;;;;4990502;28;20810;-48
2023/03/30 00:52:32;;;;;;;4.90;2.17;;;6.40;99.90;;;;;;4990844;28;20523;-49
2023/03/30 00:54:59;;;;;;;3.30;2.20;;;6.30;99.90;;;;;;4990419;28;21090;-47
2023/03/30 00:57:27;;;;;;;2.97;1.80;;;6.10;99.90;;;;;;4990767;28;20879;-48
2023/03/30 00:59:56;;;;;;;4.93;1.77;;;6.10;99.90;;;;;;4990725;28;20553;-47
2023/03/30 01:02:24;;;;;;;1.83;1.70;;;6.10;99.90;;;;;;4993871;28;20901;-48
2023/03/30 01:04:54;;;;;;;2.20;1.73;;;6.20;99.90;;;;;;4994037;28;20530;-48
2023/03/30 01:07:23;;;;;;;1.90;1.40;;;6.20;99.90;;;;;;4994203;28;20523;-50
2023/03/30 01:09:51;;;;;;;4.23;1.87;;;6.30;99.90;;;;;;5017955;23;20509;-55
2023/03/30 01:12:19;;;;;;;2.77;1.70;;;6.40;99.90;;;;;;5013262;28;20872;-56
2023/03/30 01:14:47;;;;;;;3.40;2.20;;;6.50;99.90;;;;;;5005898;28;20446;-57
2023/03/30 01:17:22;;;;;;;3.23;2.47;;;6.50;99.90;;;;;;5013628;28;20447;-55
2023/03/30 01:20:31;;;;;;;3.47;2.80;;;6.30;99.90;;;;;;5003650;28;20542;-56
2023/03/30 01:23:29;;;;;;;3.70;2.80;;;5.90;99.90;;;;;;4974048;28;20441;-56
2023/03/30 01:26:40;;;;;;;4.80;3.17;;;5.90;99.90;;;;;;4974641;28;20516;-55
2023/03/30 01:29:17;;;;;;;3.53;2.10;;;6.00;99.90;;;;;;4987491;28;20526;-55
2023/03/30 01:32:12;;;;;;;2.07;1.87;;;6.10;99.90;;;;;;4977479;28;20503;-55
2023/03/30 01:35:10;;;;;;;3.03;2.20;;;6.10;99.90;;;;;;4973621;28;20480;-55
2023/03/30 01:38:06;;;;;;;4.43;2.30;;;6.20;99.90;;;;;;4956815;28;20524;-55
2023/03/30 01:40:39;;;;;;;9.23;4.93;;;6.20;99.90;;;;;;4980298;28;20499;-55
2023/03/30 01:43:13;;;;;;;10.27;5.90;;;6.20;99.90;;;;;;4991827;28;20967;-55
2023/03/30 01:45:44;;;;;;;2.67;2.40;;;6.20;99.90;;;;;;4993596;28;20452;-55
2023/03/30 01:48:15;;;;;;;4.13;1.90;;;6.30;99.90;;;;;;4993168;28;20847;-55
2023/03/30 01:50:47;;;;;;;4.60;1.90;;;6.40;99.90;;;;;;4985667;28;20471;-55
2023/03/30 01:53:18;;;;;;;2.83;2.43;;;6.40;99.90;;;;;;4973921;28;20445;-54
2023/03/30 01:55:49;;;;;;;2.97;2.30;;;6.30;99.90;;;;;;4973994;28;20967;-55
2023/03/30 01:58:20;;;;;;;6.20;2.60;;;6.20;99.90;;;;;;4973983;28;20990;-55
2023/03/30 02:00:50;;;;;;;5.80;2.30;;;6.20;99.90;;;;;;4982491;28;20468;-56
2023/03/30 02:03:20;;;;;;;4.57;2.60;;;6.30;99.90;;;;;;4993142;28;20445;-55
2023/03/30 02:05:50;;;;;;;4.07;2.40;;;6.20;99.90;;;;;;4974050;28;20460;-55
2023/03/30 02:08:21;;;;;;;2.23;2.03;;;6.20;99.90;;;;;;4973824;28;20495;-55
2023/03/30 02:10:51;;;;;;;2.40;2.10;;;6.20;99.90;;;;;;4982232;28;20507;-55
2023/03/30 02:13:19;;;;;;;4.03;1.90;;;6.20;99.90;;;;;;4991953;28;20849;-55
2023/03/30 02:15:52;;;;;;;4.17;2.23;;;6.20;99.90;;;;;;4990422;28;20491;-55
2023/03/30 02:18:20;;;;;;;2.60;1.97;;;6.20;99.90;;;;;;4973689;28;20865;-55
2023/03/30 02:20:48;;;;;;;4.20;2.07;;;6.20;99.90;;;;;;4981772;28;20511;-55
2023/03/30 02:23:17;;;;;;;4.30;2.43;;;6.30;99.90;;;;;;4992030;28;20452;-53
2023/03/30 02:25:45;;;;;;;3.50;3.20;;;6.30;99.90;;;;;;4992922;28;20519;-55
2023/03/30 02:28:13;;;;;;;3.70;2.43;;;6.30;99.90;;;;;;4992861;28;20852;-55
2023/03/30 02:30:43;;;;;;;2.83;1.87;;;6.20;99.90;;;;;;4986491;28;20591;-56
2023/03/30 02:33:20;;;;;;;3.33;1.90;;;6.10;99.90;;;;;;4992876;28;20442;-55
2023/03/30 02:36:04;;;;;;;3.67;2.10;;;6.10;99.90;;;;;;4992267;28;20452;-55
2023/03/30 02:38:58;;;;;;;4.83;1.60;;;6.20;99.90;;;;;;4992713;28;20537;-55
2023/03/30 02:41:44;;;;;;;4.70;2.10;;;6.30;99.90;;;;;;4978905;28;20568;-54
2023/03/30 02:44:21;;;;;;;3.93;2.03;;;6.30;99.90;;;;;;4972761;28;20559;-55
2023/03/30 02:47:02;;;;;;;2.60;2.33;;;6.30;99.90;;;;;;4973125;28;20536;-55
2023/03/30 02:49:42;;;;;;;3.70;2.30;;;6.40;99.90;;;;;;4972798;28;20474;-54
2023/03/30 02:52:19;;;;;;;3.73;2.57;;;6.20;99.90;;;;;;4980003;28;20671;-54
2023/03/30 02:54:51;;;;;;;4.80;2.50;;;6.20;99.90;;;;;;4975591;28;21117;-54
2023/03/30 02:57:28;;;;;;;3.47;3.17;;;6.20;99.90;;;;;;4972800;28;20537;-56
2023/03/30 03:00:06;;;;;;;2.70;2.40;;;6.20;99.90;;;;;;4975120;28;20503;-55
2023/03/30 03:02:39;;;;;;;6.07;2.53;;;6.10;99.90;;;;;;4991821;28;21069;-55
2023/03/30 03:05:08;;;;;;;6.47;2.80;;;6.30;99.90;;;;;;4991631;28;20443;-54
2023/03/30 03:07:37;;;;;;;7.33;3.03;;;6.40;99.90;;;;;;4992282;28;20552;-55
2023/03/30 03:10:05;;;;;;;5.63;2.63;;;6.50;99.90;;;;;;4976449;28;20478;-55
2023/03/30 03:12:32;;;;;;;3.80;2.33;;;6.60;99.90;;;;;;4972474;28;20457;-55
2023/03/30 03:15:01;;;;;;;6.03;2.67;;;6.50;99.90;;;;;;4972418;28;20536;-54
2023/03/30 03:17:33;;;;;;;4.43;2.30;;;6.50;99.90;;;;;;4972668;28;20453;-56
2023/03/30 03:20:00;;;;;;;5.37;2.33;;;6.40;99.90;;;;;;4978532;28;20591;-54
2023/03/30 03:22:27;;;;;;;5.40;2.80;;;6.50;99.90;;;;;;4991194;28;20577;-55
2023/03/30 03:24:54;;;;;;;2.47;2.27;;;6.50;99.90;;;;;;4991851;28;20535;-55
2023/03/30 03:27:21;;;;;;;7.20;3.33;;;6.50;99.90;;;;;;4991693;28;20479;-54
2023/03/30 03:29:48;;;;;;;3.90;2.33;;;6.50;99.90;;;;;;4977722;28;20556;-54
2023/03/30 03:32:16;;;;;;;2.87;2.57;;;6.30;99.90;;;;;;4991611;28;20468;-54
2023/03/30 03:34:44;;;;;;;4.03;2.47;;;6.30;99.90;;;;;;4991055;28;20535;-55
2023/03/30 03:37:11;;;;;;;4.80;2.30;;;6.40;99.90;;;;;;4991948;28;20452;-54
2023/03/30 03:39:38;;;;;;;5.97;3.50;;;6.40;99.90;;;;;;4988426;28;20509;-55
2023/03/30 03:42:06;;;;;;;6.53;3.60;;;6.50;99.90;;;;;;4971993;28;20924;-55
2023/03/30 03:44:33;;;;;;;6.60;2.77;;;6.50;99.90;;;;;;4988417;28;20449;-55
2023/03/30 03:47:00;;;;;;;4.50;2.20;;;6.60;99.90;;;;;;4991560;28;20938;-55
2023/03/30 03:49:28;;;;;;;3.73;1.73;;;6.60;99.90;;;;;;4990438;28;20470;-55
2023/03/30 03:51:55;;;;;;;5.37;2.07;;;6.70;99.90;;;;;;4974183;28;20995;-55
2023/03/30 03:54:22;;;;;;;4.93;3.00;;;6.80;99.90;;;;;;4971664;28;20943;-55
2023/03/30 03:56:50;;;;;;;5.00;3.70;;;6.70;99.90;;;;;;4971919;28;21038;-55
2023/03/30 03:59:17;;;;;;;4.57;3.03;;;6.70;99.90;;;;;;4971689;28;20556;-54
2023/03/30 04:01:44;;;;;;;8.40;3.47;;;6.70;99.90;;;;;;4990596;28;20519;-55
2023/03/30 04:04:11;;;;;;;6.67;2.90;;;6.60;99.90;;;;;;4991410;28;20510;-54
2023/03/30 04:06:40;;;;;;;8.47;5.27;;;6.50;99.90;;;;;;4991080;28;20894;-55
2023/03/30 04:09:07;;;;;;;3.60;3.40;;;6.50;99.90;;;;;;4991149;28;20472;-54
2023/03/30 04:11:33;;;;;;;3.73;3.30;;;6.50;99.90;;;;;;4973277;28;20457;-55
2023/03/30 04:14:00;;;;;;;4.70;3.13;;;6.30;99.90;;;;;;4975048;28;20520;-55
2023/03/30 04:16:27;;;;;;;4.73;2.70;;;6.20;99.90;;;;;;4971838;28;20532;-56
2023/03/30 04:18:56;;;;;;;4.37;3.00;;;6.20;99.90;;;;;;4971564;28;20446;-55
2023/03/30 04:21:24;;;;;;;4.27;3.13;;;6.20;99.90;;;;;;4985586;28;20452;-55
2023/03/30 04:23:52;;;;;;;4.30;3.30;;;6.30;99.90;;;;;;4990402;28;20522;-56
2023/03/30 04:26:19;;;;;;;2.80;2.10;;;6.50;99.90;;;;;;4986831;28;20531;-56
2023/03/30 04:28:46;;;;;;;6.50;2.60;;;6.50;99.90;;;;;;4980893;28;20528;-55
2023/03/30 04:31:13;;;;;;;2.90;2.20;;;6.60;99.90;;;;;;4982649;28;20440;-55
2023/03/30 04:33:49;;;;;;;3.30;2.17;;;6.70;99.90;;;;;;4991047;28;20860;-54
2023/03/30 04:36:17;;;;;;;3.93;2.37;;;6.70;99.90;;;;;;4976182;28;20503;-55
2023/03/30 04:38:56;;;;;;;3.90;2.27;;;6.70;99.90;;;;;;4975384;28;20535;-55
2023/03/30 04:41:26;;;;;;;2.23;1.40;;;6.80;99.90;;;;;;4975104;28;20449;-55
2023/03/30 04:43:52;;;;;;;5.07;3.30;;;6.80;99.90;;;;;;4981148;28;20475;-54
2023/03/30 04:46:19;;;;;;;3.43;2.10;;;6.80;99.90;;;;;;4990847;28;20487;-55
2023/03/30 04:48:46;;;;;;;9.77;2.80;;;6.90;99.90;;;;;;4994289;28;20486;-55
2023/03/30 04:51:13;;;;;;;6.70;4.53;;;6.90;99.90;;;;;;4984722;28;20536;-55
2023/03/30 04:53:40;;;;;;;7.23;4.37;;;6.90;99.90;;;;;;4980378;28;20535;-54
2023/03/30 04:56:07;;;;;;;6.03;2.27;;;6.90;99.90;;;;;;4991809;28;20478;-54
2023/03/30 04:58:36;;;;;;;7.77;3.17;;;6.90;99.90;;;;;;4979471;28;20535;-55
2023/03/30 05:01:03;;;;;;;8.17;5.10;;;7.00;99.90;;;;;;4977627;28;20496;-54
2023/03/30 05:03:30;;;;;;;7.30;5.10;;;6.80;99.90;;;;;;4974902;28;20520;-55
2023/03/30 05:05:57;;;;;;;5.33;4.90;;;6.60;99.90;;;;;;4975524;28;20445;-54
2023/03/30 05:08:24;;;;;;;17.23;13.20;;;6.40;99.90;;;;;;4974166;28;20528;-55
2023/03/30 05:10:51;;;;;;;5.13;4.33;;;6.40;99.90;;;;;;4976381;28;20522;-55
2023/03/30 05:13:18;;;;;;;4.63;3.47;;;6.30;99.90;;;;;;4977938;28;20449;-54
2023/03/30 05:15:53;;;;;;;5.83;3.03;;;6.30;99.90;;;;;;4982673;28;20960;-55
2023/03/30 05:18:19;;;;;;;3.93;2.17;;;6.50;99.90;;;;;;4987377;28;20902;-55
2023/03/30 05:20:46;;;;;;;6.03;3.57;;;6.50;99.90;;;;;;4981752;28;20495;-55
2023/03/30 05:23:13;;;;;;;6.00;4.50;;;6.70;99.90;;;;;;4975493;28;20516;-54
2023/03/30 05:25:44;;;;;;;8.70;4.60;;;6.70;99.90;;;;;;4971196;28;20476;-55
2023/03/30 05:28:11;;;;;;;6.00;4.40;;;6.70;99.90;;;;;;4975681;28;20468;-55
2023/03/30 05:30:38;;;;;;;7.67;6.40;;;6.60;99.90;;;;;;4965268;28;20466;-54
2023/03/30 05:33:08;;;;;;;5.20;4.70;;;6.60;99.90;;;;;;4974332;28;20518;-55
2023/03/30 05:35:36;;;;;;;5.97;4.00;;;6.60;99.90;;;;;;4974489;28;20504;-54
2023/03/30 05:38:03;;;;;;;4.67;3.60;;;6.60;99.90;;;;;;4974183;28;20460;-55
2023/03/30 05:40:30;;;;;;;5.93;4.30;;;6.60;99.90;;;;;;4973977;28;20461;-55
2023/03/30 05:42:57;;;;;;;5.90;4.63;;;6.70;99.90;;;;;;4974129;28;20477;-55
2023/03/30 05:45:24;;;;;;;6.20;4.73;;;6.70;99.90;;;;;;4973037;28;21024;-57
2023/03/30 05:47:53;;;;;;;7.13;5.03;;;6.80;99.90;;;;;;4972858;28;20456;-54
2023/03/30 05:50:21;;;;;;;5.23;4.67;;;6.80;99.90;;;;;;4974102;28;20916;-55
2023/03/30 05:52:48;;;;;;;5.03;4.17;;;6.90;99.90;;;;;;4974389;28;20920;-55
2023/03/30 05:55:15;;;;;;;4.43;3.50;;;6.90;99.90;;;;;;4973397;28;20524;-54
2023/03/30 05:57:42;;;;;;;6.77;4.20;;;6.90;99.90;;;;;;4974085;28;20476;-55
2023/03/30 06:00:12;;;;;;;6.20;4.10;;;6.90;99.90;;;;;;4973790;28;20504;-55
2023/03/30 06:02:39;;;;;;;6.07;4.10;;;6.90;99.90;;;;;;4973722;28;21135;-55
2023/03/30 06:05:07;;;;;;;6.30;4.50;;;6.90;99.90;;;;;;4973954;28;20484;-55
2023/03/30 06:07:36;;;;;;;5.37;3.50;;;7.00;99.90;;;;;;4973515;28;20830;-55
2023/03/30 06:10:03;;;;;;;5.03;4.30;;;7.00;99.90;;;;;;4973878;28;20513;-55
2023/03/30 06:12:31;;;;;;;4.97;4.47;;;7.00;99.90;;;;;;4973436;28;21212;-55
2023/03/30 06:14:58;;;;;;;7.00;4.23;;;7.00;99.90;;;;;;4973563;28;20495;-55
2023/03/30 06:17:25;;;;;;;14.27;6.90;;;7.00;99.90;;;;;;4973883;28;20455;-55
2023/03/30 06:19:52;;;;;;;9.80;6.07;;;7.10;99.90;;;;;;4973708;28;20497;-55
2023/03/30 06:22:20;;;;;;;8.57;4.60;;;7.10;99.90;;;;;;4973173;28;20536;-54
2023/03/30 06:24:48;;;;;;;6.80;5.60;;;7.10;99.90;;;;;;4971788;28;20456;-54
2023/03/30 06:27:15;;;;;;;6.07;4.20;;;7.10;99.90;;;;;;4973113;28;20528;-56
2023/03/30 06:29:42;;;;;;;10.20;4.10;;;7.10;99.90;;;;;;4973320;28;20501;-55
2023/03/30 06:32:09;;;;;;;6.93;5.53;;;7.10;99.90;;;;;;4972494;28;20460;-55
2023/03/30 06:34:36;;;;;;;6.10;5.00;;;7.10;99.90;;;;;;4972960;28;20473;-55
2023/03/30 06:37:03;;;;;;;11.53;4.00;;;7.10;99.90;;;;;;4973114;28;20485;-55
2023/03/30 06:39:29;;;;;;;5.90;3.33;;;7.10;99.90;;;;;;4972903;28;21031;-55
2023/03/30 06:41:58;;;;;;;4.10;3.37;;;7.20;99.90;;;;;;4972887;28;20470;-55
2023/03/30 06:44:26;;;;;;;6.50;4.00;;;7.20;99.90;;;;;;4972441;28;20580;-55
2023/03/30 06:46:52;;;;;;;4.87;3.53;;;7.20;99.90;;;;;;4972746;28;20537;-55
2023/03/30 06:49:19;;;;;;;11.00;4.70;;;7.20;99.90;;;;;;4972964;28;20497;-55
2023/03/30 06:51:46;;;;;;;10.30;6.10;;;7.20;99.90;;;;;;4972873;28;20544;-55
2023/03/30 06:54:13;;;;;;;7.07;6.00;;;7.30;99.90;;;;;;4972881;28;20532;-55
2023/03/30 06:56:40;;;;;;;9.30;6.23;;;7.30;99.90;;;;;;4972814;28;21003;-55
2023/03/30 06:59:08;;;;;;;8.00;5.63;;;7.30;99.90;;;;;;4972443;28;20473;-54
2023/03/30 07:01:35;;;;;;;7.67;5.93;;;7.30;99.90;;;;;;4976911;28;20523;-55
2023/03/30 07:04:03;;;;;;;8.80;6.70;;;7.30;99.90;;;;;;4992094;28;20484;-55
2023/03/30 07:06:30;;;;;;;7.90;6.93;;;7.30;99.90;;;;;;4992170;28;20452;-54
2023/03/30 07:08:57;;;;;;;8.50;7.33;;;7.30;99.90;;;;;;4992057;28;20448;-55
2023/03/30 07:11:25;;;;;;;9.10;5.80;;;7.40;99.90;;;;;;5036374;23;20494;-85
2023/03/30 07:13:53;;;;;;;11.60;9.63;;;7.40;99.90;;;;;;5034897;28;20934;-84
2023/03/30 07:16:22;;;;;;;14.70;11.97;;;7.40;99.90;;;;;;5034173;28;20471;-84
2023/03/30 07:18:48;;;;;;;22.70;16.27;;;7.40;99.90;;;;;;5034630;28;20682;-84
2023/03/30 07:21:15;;;;;;;11.23;8.00;;;7.40;99.90;;;;;;5034256;28;20447;-84
2023/03/30 07:23:42;;;;;;;8.93;6.60;;;7.40;99.90;;;;;;5034555;28;20478;-85
2023/03/30 07:26:09;;;;;;;11.60;9.03;;;7.40;99.90;;;;;;5032973;23;20500;-55
2023/03/30 07:28:37;;;;;;;8.07;7.07;;;7.40;99.90;;;;;;5011373;28;20489;-53
2023/03/30 07:31:06;;;;;;;7.73;5.20;;;7.40;99.90;;;;;;5010794;28;20466;-53
2023/03/30 07:33:35;;;;;;;11.03;6.17;;;7.50;99.90;;;;;;5011456;28;20447;-53
2023/03/30 07:36:03;;;;;;;6.73;5.87;;;7.50;99.90;;;;;;5010998;28;20831;-52
2023/03/30 07:38:30;;;;;;;7.00;5.07;;;7.50;99.90;;;;;;5038557;23;21102;-81
2023/03/30 07:40:57;;;;;;;11.50;5.30;;;7.60;99.90;;;;;;5015880;28;20455;-81
2023/03/30 07:43:25;;;;;;;7.43;4.80;;;7.60;99.90;;;;;;5015990;28;20506;-81
2023/03/30 07:45:52;;;;;;;7.30;4.00;;;7.60;99.90;;;;;;5015402;28;20972;-81
2023/03/30 07:48:19;;;;;;;6.23;4.63;;;7.60;99.90;;;;;;5015786;28;20448;-81
2023/03/30 07:50:47;;;;;;;5.30;4.47;;;7.70;99.90;;;;;;5014973;28;20984;-81
2023/03/30 07:53:14;;;;;;;12.63;6.63;;;7.60;99.90;;;;;;5014559;28;20483;-82
2023/03/30 07:55:41;;;;;;;6.20;4.67;;;7.80;99.90;;;;;;5014831;28;20554;-81
2023/03/30 07:58:08;;;;;;;13.30;6.20;;;7.90;99.90;;;;;;5015329;28;20482;-81
2023/03/30 08:00:36;;;;;;;7.20;4.50;;;7.80;99.90;;;;;;5015124;28;20470;-81
2023/03/30 08:03:03;;;;;;;5.73;4.20;;;7.80;99.90;;;;;;5015487;28;20811;-81
2023/03/30 08:05:30;;;;;;;7.60;4.43;;;7.90;99.90;;;;;;5014990;28;20862;-81
2023/03/30 08:07:58;;;;;;;4.90;3.80;;;7.90;99.90;;;;;;5014904;28;20485;-81
2023/03/30 08:10:26;;;;;;;6.13;4.87;;;8.00;99.90;;;;;;5015942;28;20471;-81
2023/03/30 08:12:52;;;;;;;7.07;4.77;;;8.10;99.90;;;;;;5019261;28;21005;-82
2023/03/30 08:15:19;;;;;;;6.27;4.83;;;8.10;99.90;;;;;;5018965;28;20540;-81
2023/03/30 08:17:46;;;;;;;4.83;3.80;;;8.20;99.90;;;;;;5019067;28;20450;-82
2023/03/30 08:20:13;;;;;;;8.33;3.70;;;8.00;99.90;;;;;;5018873;28;20443;-81
2023/03/30 08:22:40;;;;;;;8.60;4.67;;;8.10;99.90;;;;;;5019108;28;20443;-82
2023/03/30 08:25:10;;;;;;;4.80;3.40;;;8.00;99.90;;;;;;5018367;28;20513;-81
2023/03/30 08:27:37;;;;;;;7.77;3.70;;;8.10;99.90;;;;;;5019311;28;20527;-82
2023/03/30 08:30:05;;;;;;;8.83;3.50;;;8.20;99.90;;;;;;5018113;28;20530;-82
2023/03/30 08:32:32;;;;;;;7.70;2.90;;;8.40;99.90;;;;;;5018169;28;20435;-81
2023/03/30 08:34:59;;;;;;;8.23;3.80;;;8.40;99.90;;;;;;5018808;28;20542;-81
2023/03/30 08:37:26;;;;;;;6.00;3.70;;;8.40;99.90;;;;;;5018719;28;20459;-81
2023/03/30 08:39:53;;;;;;;4.00;2.60;;;8.50;99.90;;;;;;5018862;28;20451;-81
2023/03/30 08:42:49;;;;;;;6.97;3.23;;;8.60;99.90;;;;;;5018359;28;20537;-82
2023/03/30 08:45:17;;;;;;;5.57;3.53;;;8.70;99.90;;;;;;5004859;28;21071;-81
2023/03/30 08:47:47;;;;;;;3.57;2.97;;;8.80;99.90;;;;;;5030820;28;20448;-81
2023/03/30 08:50:17;;;;;;;7.53;3.33;;;8.80;99.90;;;;;;5016747;28;20541;-81
2023/03/30 08:52:45;;;;;;;4.87;2.90;;;8.70;99.90;;;;;;5016233;28;20458;-81
2023/03/30 08:55:23;;;;;;;5.00;2.50;;;8.80;99.90;;;;;;5034587;28;20498;-81
2023/03/30 08:57:56;;;;;;;9.30;3.30;;;8.90;99.90;;;;;;5035751;28;20444;-81
2023/03/30 09:00:32;;;;;;;5.07;2.90;;;8.80;99.90;;;;;;5035987;28;20450;-81
2023/03/30 09:03:10;;;;;;;4.43;2.60;;;9.00;99.90;;;;;;5036032;28;20480;-81
2023/03/30 09:05:40;;;;;;;6.80;3.10;;;9.10;99.90;;;;;;5036404;28;20478;-81
2023/03/30 09:08:15;;;;;;;6.30;3.50;;;9.10;99.90;;;;;;5037221;28;20451;-81
2023/03/30 09:10:47;;;;;;;5.00;3.07;;;9.20;99.90;;;;;;5036288;28;20808;-82
2023/03/30 09:13:18;;;;;;;4.03;3.37;;;9.30;99.90;;;;;;5035552;28;20541;-81
2023/03/30 09:15:50;;;;;;;6.97;3.27;;;9.30;99.90;;;;;;5035672;28;20540;-81
2023/03/30 09:18:22;;;;;;;10.57;4.10;;;9.40;99.90;;;;;;5035408;28;20450;-81
2023/03/30 09:20:53;;;;;;;10.07;3.97;;;9.40;99.90;;;;;;5035529;28;20527;-81
2023/03/30 09:23:21;;;;;;;7.43;4.17;;;9.40;99.90;;;;;;5035351;28;20565;-81
2023/03/30 09:25:54;;;;;;;7.10;4.07;;;9.60;99.90;;;;;;5035119;28;20558;-81
2023/03/30 09:28:32;;;;;;;6.67;3.60;;;9.60;99.90;;;;;;5035831;28;20521;-81
2023/03/30 09:31:02;;;;;;;9.47;3.67;;;9.80;99.90;;;;;;5035520;28;20505;-81
2023/03/30 09:33:42;;;;;;;7.40;3.73;;;9.90;99.90;;;;;;5036218;28;20436;-81
2023/03/30 09:36:15;;;;;;;9.37;3.80;;;9.90;99.90;;;;;;5036397;28;20465;-82
2023/03/30 09:38:42;;;;;;;16.77;7.30;;;9.80;99.90;;;;;;5036017;28;20458;-82
2023/03/30 09:41:40;;;;;;;7.03;3.00;;;10.00;99.90;;;;;;5036028;28;20531;-82
2023/03/30 09:44:17;;;;;;;6.43;3.20;;;10.00;99.90;;;;;;5033460;28;20515;-82
2023/03/30 09:46:45;;;;;;;6.20;3.00;;;10.20;99.90;;;;;;5036830;28;20535;-81
2023/03/30 09:49:14;;;;;;;5.80;3.00;;;10.20;99.90;;;;;;5036678;28;20480;-82
2023/03/30 09:51:54;;;;;;;5.63;3.30;;;10.30;99.90;;;;;;5036064;28;20506;-82
2023/03/30 09:54:23;;;;;;;4.27;3.50;;;10.00;99.90;;;;;;5035397;28;20473;-82
2023/03/30 09:56:55;;;;;;;6.90;3.30;;;10.00;99.90;;;;;;5036143;28;20447;-82
2023/03/30 09:59:30;;;;;;;8.00;3.30;;;10.20;99.90;;;;;;5036214;28;20451;-82
2023/03/30 10:02:10;;;;;;;7.83;3.60;;;10.00;99.90;;;;;;5036119;28;20446;-82
2023/03/30 10:05:02;;;;;;;7.80;3.00;;;9.90;99.90;;;;;;5035338;28;20488;-81
2023/03/30 10:07:32;;;;;;;8.60;4.10;;;9.90;99.90;;;;;;5037651;28;20517;-82
2023/03/30 10:10:02;;;;;;;10.00;3.67;;;10.30;99.90;;;;;;5037816;28;20486;-82
2023/03/30 10:12:30;;;;;;;9.30;3.40;;;10.10;99.90;;;;;;5038393;28;20472;-83
2023/03/30 10:15:03;;;;;;;5.37;3.00;;;10.10;99.90;;;;;;5037473;28;20474;-82
2023/03/30 10:17:30;;;;;;;7.73;3.30;;;10.10;99.90;;;;;;5036279;28;20442;-83
2023/03/30 10:20:20;;;;;;;6.47;2.73;;;10.10;99.90;;;;;;5036614;28;20449;-83
2023/03/30 10:22:51;;;;;;;3.43;2.60;;;10.20;99.90;;;;;;5037326;28;20608;-83
2023/03/30 10:25:22;;;;;;;3.90;3.00;;;10.10;99.90;;;;;;5036319;28;20488;-83
2023/03/30 10:27:52;;;;;;;4.93;3.33;;;10.00;99.90;;;;;;5035797;28;20822;-83
2023/03/30 10:30:24;;;;;;;9.43;3.00;;;9.90;99.90;;;;;;5035725;28;20457;-84
2023/03/30 10:32:53;;;;;;;3.70;2.70;;;10.10;99.90;;;;;;5017926;28;20452;-82
2023/03/30 10:35:23;;;;;;;4.73;3.37;;;10.20;99.90;;;;;;5005144;28;20517;-82
2023/03/30 10:37:52;;;;;;;4.70;3.27;;;10.30;99.90;;;;;;5006210;28;20507;-83
2023/03/30 10:40:23;;;;;;;9.70;3.80;;;10.30;99.90;;;;;;5006047;28;20867;-82
2023/03/30 10:42:54;;;;;;;6.80;4.00;;;10.10;99.90;;;;;;5004844;28;20455;-83
2023/03/30 10:45:28;;;;;;;5.07;3.00;;;10.20;99.90;;;;;;5006012;28;20907;-82
2023/03/30 10:48:19;;;;;;;4.67;3.17;;;10.20;99.90;;;;;;5005980;28;20483;-82
2023/03/30 10:50:53;;;;;;;7.93;3.57;;;10.30;99.90;;;;;;4995951;28;21005;-85
2023/03/30 10:53:33;;;;;;;8.27;3.37;;;10.50;99.90;;;;;;4999574;28;20448;-82
2023/03/30 10:56:09;;;;;;;4.40;2.67;;;10.60;99.90;;;;;;4997179;28;21007;-83
2023/03/30 10:58:54;;;;;;;7.03;3.90;;;10.60;99.90;;;;;;4997199;28;20525;-83
2023/03/30 11:01:29;;;;;;;7.93;3.60;;;10.60;99.90;;;;;;4996031;28;20450;-83
2023/03/30 11:04:01;;;;;;;6.77;3.73;;;10.60;99.90;;;;;;4996067;28;20817;-83
2023/03/30 11:06:32;;;;;;;8.63;3.70;;;10.60;99.90;;;;;;4996013;28;20480;-83
2023/03/30 11:09:02;;;;;;;8.20;3.90;;;10.50;99.90;;;;;;4995881;28;21004;-83
2023/03/30 11:11:34;;;;;;;12.03;3.40;;;10.80;99.90;;;;;;4996189;28;20429;-83
2023/03/30 11:14:05;;;;;;;7.50;3.67;;;10.60;99.90;;;;;;4995890;28;20774;-83
2023/03/30 11:16:44;;;;;;;8.50;4.23;;;10.90;99.90;;;;;;4996539;28;20561;-83
2023/03/30 11:19:17;;;;;;;5.47;3.47;;;10.60;99.90;;;;;;4996027;28;20445;-83
2023/03/30 11:21:55;;;;;;;5.43;3.50;;;10.80;99.90;;;;;;4994794;28;20958;-82
2023/03/30 11:24:24;;;;;;;9.27;3.63;;;10.70;99.90;;;;;;4995043;28;20515;-83
2023/03/30 11:26:57;;;;;;;4.03;3.60;;;10.90;99.90;;;;;;4994605;28;20473;-82
2023/03/30 11:29:32;;;;;;;5.40;3.80;;;11.30;99.90;;;;;;4995370;28;20443;-83
2023/03/30 11:32:14;;;;;;;5.90;3.70;;;11.50;99.90;;;;;;4994391;28;20475;-83
2023/03/30 11:34:51;;;;;;;8.60;4.37;;;11.60;99.90;;;;;;4996144;28;20505;-83
2023/03/30 11:37:26;;;;;;;10.03;3.57;;;11.60;99.90;;;;;;4996414;28;20490;-83
2023/03/30 11:39:58;;;;;;;5.97;4.17;;;11.80;99.90;;;;;;4996397;28;20458;-83
2023/03/30 11:42:29;;;;;;;4.50;3.50;;;11.80;99.90;;;;;;4995962;28;20490;-82
2023/03/30 11:44:56;;;;;;;9.13;3.50;;;11.80;99.90;;;;;;4995146;28;20910;-83
2023/03/30 11:47:37;;;;;;;5.77;3.80;;;12.00;99.90;;;;;;4996111;28;20493;-83
2023/03/30 11:50:28;;;;;;;6.10;3.80;;;12.30;99.90;;;;;;4996171;28;21093;-83
2023/03/30 11:53:11;;;;;;;10.43;4.83;;;11.90;99.90;;;;;;4995684;28;20464;-83
2023/03/30 11:55:57;;;;;;;5.63;3.87;;;12.30;99.90;;;;;;4996185;28;20465;-83
2023/03/30 11:58:34;;;;;;;6.07;3.30;;;12.50;99.90;;;;;;4996196;28;20478;-82
2023/03/30 12:01:26;;;;;;;8.63;3.43;;;12.30;99.90;;;;;;4995844;28;20458;-83
2023/03/30 12:03:59;;;;;;;5.83;4.07;;;12.30;99.90;;;;;;4996402;28;20453;-83
2023/03/30 12:06:32;;;;;;;12.27;4.13;;;12.40;99.90;;;;;;4996130;28;20467;-83
2023/03/30 12:09:15;;;;;;;6.30;2.87;;;12.30;99.90;;;;;;4997069;28;20452;-83
2023/03/30 12:11:47;;;;;;;4.60;2.83;;;12.40;99.90;;;;;;4996383;28;20459;-83
2023/03/30 12:14:34;;;;;;;5.00;4.10;;;12.50;99.90;;;;;;4996125;28;20495;-83
2023/03/30 12:17:06;;;;;;;5.83;3.10;;;12.60;99.90;;;;;;4996491;28;20535;-82
2023/03/30 12:19:43;;;;;;;4.10;2.87;;;12.50;99.90;;;;;;4996473;28;20439;-82
2023/03/30 12:22:15;;;;;;;6.20;3.43;;;12.60;99.90;;;;;;4997367;28;20474;-82
2023/03/30 12:24:49;;;;;;;8.00;3.27;;;13.00;99.90;;;;;;4997735;28;20879;-83
2023/03/30 12:27:16;;;;;;;7.90;3.60;;;13.20;99.90;;;;;;4998079;28;20804;-83
2023/03/30 12:29:46;;;;;;;10.10;4.47;;;13.20;99.90;;;;;;4996754;28;20666;-83
2023/03/30 12:32:28;;;;;;;6.43;2.97;;;13.40;99.90;;;;;;4996409;28;20968;-83
2023/03/30 12:34:57;;;;;;;4.77;2.60;;;13.50;99.90;;;;;;4994490;28;20530;-83
2023/03/30 12:37:32;;;;;;;4.67;3.00;;;13.20;99.90;;;;;;4998167;28;21049;-83
2023/03/30 12:40:09;;;;;;;5.73;2.70;;;13.20;99.90;;;;;;4997518;28;20447;-83
2023/03/30 12:42:45;;;;;;;7.00;3.03;;;13.10;99.90;;;;;;4998042;28;20483;-83
2023/03/30 12:45:27;;;;;;;6.73;2.63;;;13.30;99.90;;;;;;5010065;28;20576;-83
2023/03/30 12:48:22;;;;;;;7.03;2.57;;;13.20;99.90;;;;;;5032440;28;20449;-82
2023/03/30 12:51:00;;;;;;;4.80;2.50;;;13.10;99.90;;;;;;5032906;28;20515;-83
2023/03/30 12:54:07;;;;;;;6.83;2.70;;;13.00;99.90;;;;;;5033010;28;20456;-82
2023/03/30 12:56:38;;;;;;;9.43;3.43;;;12.90;99.90;;;;;;5019306;28;20477;-82
2023/03/30 12:59:52;;;;;;;6.90;2.80;;;13.60;99.90;;;;;;5036062;28;20438;-83
2023/03/30 13:02:41;;;;;;;5.73;2.20;;;13.50;99.90;;;;;;5036327;28;20534;-83
2023/03/30 13:05:19;;;;;;;3.87;2.20;;;13.50;99.90;;;;;;5034446;28;20514;-83
2023/03/30 13:07:48;;;;;;;3.60;1.90;;;13.20;99.90;;;;;;5036496;28;20453;-83
2023/03/30 13:10:37;;;;;;;3.37;2.70;;;13.10;99.90;;;;;;5037041;28;20891;-83
2023/03/30 13:13:05;;;;;;;4.93;2.40;;;13.20;99.90;;;;;;5037792;28;20446;-83
2023/03/30 13:15:42;;;;;;;5.30;2.20;;;13.40;99.90;;;;;;5037789;28;20462;-82